createdAt,value
2018-09-18T00:00:02.853Z,98028.39
2018-09-18T00:02:31.167Z,98029.09
2018-09-18T00:04:59.474Z,98033.84
2018-09-18T00:07:27.777Z,98033.75
2018-09-18T00:09:56.085Z,98028.09
2018-09-18T00:12:24.386Z,98032.59
2018-09-18T00:14:52.682Z,98033.02
2018-09-18T00:17:21.000Z,98033.38
2018-09-18T00:19:49.274Z,98030.15
2018-09-18T00:22:17.566Z,98037.22
2018-09-18T00:24:45.877Z,98015.61
2018-09-18T00:27:14.178Z,98018.57
2018-09-18T00:29:42.502Z,98026.16
2018-09-18T00:32:10.795Z,98018.75
2018-09-18T00:34:39.085Z,98020.98
2018-09-18T00:37:07.385Z,98018.69
2018-09-18T00:39:35.681Z,98017.21
2018-09-18T00:42:03.985Z,98016.97
2018-09-18T00:44:32.285Z,98003.24
2018-09-18T00:47:00.578Z,98014.79
2018-09-18T00:49:28.882Z,98002.09
2018-09-18T00:51:57.177Z,97996.66
2018-09-18T00:54:25.486Z,98011.37
2018-09-18T00:56:53.793Z,98011.64
2018-09-18T00:59:22.101Z,98011.87
2018-09-18T01:01:50.393Z,98017.05
2018-09-18T01:04:18.701Z,98011.48
2018-09-18T01:06:47.006Z,98006.17
2018-09-18T01:09:15.306Z,98006.66
2018-09-18T01:11:43.610Z,98008.88
2018-09-18T01:14:11.910Z,98011.48
2018-09-18T01:16:40.213Z,98011.39
2018-09-18T01:19:08.523Z,98009.94
2018-09-18T01:21:36.829Z,98010.92
2018-09-18T01:24:05.130Z,98012.36
2018-09-18T01:26:33.489Z,98006.48
2018-09-18T01:29:01.785Z,98005.94
2018-09-18T01:31:30.081Z,98006.85
2018-09-18T01:33:58.386Z,98005.36
2018-09-18T01:36:26.677Z,98011.73
2018-09-18T01:38:54.984Z,98005.20
2018-09-18T01:41:23.273Z,98010.21
2018-09-18T01:43:51.661Z,98006.17
2018-09-18T01:46:19.882Z,98004.06
2018-09-18T01:48:48.182Z,98006.16
2018-09-18T01:51:16.490Z,98008.44
2018-09-18T01:53:44.794Z,98009.62
2018-09-18T01:56:13.109Z,98008.23
2018-09-18T01:58:41.418Z,98002.67
2018-09-18T02:01:09.725Z,98004.99
2018-09-18T02:03:38.026Z,97999.55
2018-09-18T02:06:06.350Z,98002.22
2018-09-18T02:08:34.658Z,97996.37
2018-09-18T02:11:02.962Z,97995.05
2018-09-18T02:13:31.272Z,97996.20
2018-09-18T02:15:59.565Z,97999.89
2018-09-18T02:18:27.853Z,97997.59
2018-09-18T02:20:56.153Z,98000.61
2018-09-18T02:23:24.454Z,97992.20
2018-09-18T02:25:52.765Z,97994.64
2018-09-18T02:28:21.061Z,98003.45
2018-09-18T02:30:49.375Z,97997.89
2018-09-18T02:33:17.663Z,98001.37
2018-09-18T02:35:45.980Z,98003.00
2018-09-18T02:38:14.274Z,97998.42
2018-09-18T02:40:42.585Z,98003.06
2018-09-18T02:43:10.897Z,98003.06
2018-09-18T02:45:39.189Z,97994.27
2018-09-18T02:48:07.505Z,97998.69
2018-09-18T02:50:35.798Z,97996.49
2018-09-18T02:53:04.102Z,97996.84
2018-09-18T02:55:32.405Z,97998.55
2018-09-18T02:58:00.705Z,98002.30
2018-09-18T03:00:29.013Z,98003.08
2018-09-18T03:02:57.310Z,97993.34
2018-09-18T03:05:25.617Z,97980.73
2018-09-18T03:07:53.932Z,97996.37
2018-09-18T03:10:22.218Z,97997.05
2018-09-18T03:12:50.529Z,97998.91
2018-09-18T03:15:18.814Z,97991.96
2018-09-18T03:17:47.134Z,98002.04
2018-09-18T03:20:15.425Z,98002.59
2018-09-18T03:22:43.776Z,97994.99
2018-09-18T03:25:12.169Z,97994.43
2018-09-18T03:27:40.450Z,97995.09
2018-09-18T03:30:08.774Z,97995.55
2018-09-18T03:32:37.069Z,97991.08
2018-09-18T03:35:05.386Z,97991.31
2018-09-18T03:37:33.697Z,97997.57
2018-09-18T03:40:02.003Z,97997.82
2018-09-18T03:42:30.351Z,97997.01
2018-09-18T03:44:59.255Z,98004.52
2018-09-18T03:47:27.570Z,97997.47
2018-09-18T03:49:55.885Z,97999.32
2018-09-18T03:52:24.189Z,98000.03
2018-09-18T03:54:52.505Z,97996.90
2018-09-18T03:57:20.805Z,97995.05
2018-09-18T03:59:49.127Z,97988.83
2018-09-18T04:02:17.438Z,97994.73
2018-09-18T04:04:45.745Z,97991.81
2018-09-18T04:07:14.071Z,97991.35
2018-09-18T04:09:42.385Z,97992.41
2018-09-18T04:12:10.694Z,97991.11
2018-09-18T04:14:39.010Z,97992.48
2018-09-18T04:17:07.350Z,97989.85
2018-09-18T04:19:35.674Z,97985.45
2018-09-18T04:22:03.978Z,97987.65
2018-09-18T04:24:32.298Z,97984.20
2018-09-18T04:27:00.611Z,97987.79
2018-09-18T04:29:28.909Z,97988.14
2018-09-18T04:31:57.237Z,97994.16
2018-09-18T04:34:25.537Z,97991.59
2018-09-18T04:36:53.842Z,97988.50
2018-09-18T04:39:22.155Z,97990.56
2018-09-18T04:41:50.462Z,97991.73
2018-09-18T04:44:18.784Z,97989.42
2018-09-18T04:46:47.082Z,97988.36
2018-09-18T04:49:15.400Z,97989.53
2018-09-18T04:51:43.717Z,97995.41
2018-09-18T04:54:12.025Z,97999.92
2018-09-18T04:56:40.346Z,97998.89
2018-09-18T04:59:08.650Z,97998.07
2018-09-18T05:01:36.955Z,98005.94
2018-09-18T05:04:05.265Z,98004.20
2018-09-18T05:06:33.570Z,98004.66
2018-09-18T05:09:01.897Z,98010.20
2018-09-18T05:11:30.201Z,98014.37
2018-09-18T05:13:58.573Z,98010.31
2018-09-18T05:16:26.865Z,98013.09
2018-09-18T05:18:55.166Z,98012.73
2018-09-18T05:21:23.486Z,98016.33
2018-09-18T05:23:51.797Z,98021.63
2018-09-18T05:26:20.109Z,98024.88
2018-09-18T05:28:48.422Z,98026.40
2018-09-18T05:31:16.742Z,98015.52
2018-09-18T05:33:45.098Z,98024.19
2018-09-18T05:36:15.593Z,98018.50
2018-09-18T05:38:43.897Z,98017.22
2018-09-18T05:41:12.213Z,98015.26
2018-09-18T05:43:40.518Z,98017.67
2018-09-18T05:46:08.857Z,98019.87
2018-09-18T05:48:37.174Z,98028.97
2018-09-18T05:51:05.469Z,98028.70
2018-09-18T05:53:33.779Z,98027.89
2018-09-18T05:56:02.114Z,98031.22
2018-09-18T05:58:30.390Z,98029.83
2018-09-18T06:00:58.689Z,98028.41
2018-09-18T06:03:26.988Z,98029.09
2018-09-18T06:05:55.298Z,98032.73
2018-09-18T06:08:23.594Z,98036.75
2018-09-18T06:10:51.909Z,98032.68
2018-09-18T06:13:20.217Z,98042.33
2018-09-18T06:15:48.501Z,98041.84
2018-09-18T06:18:16.806Z,98043.78
2018-09-18T06:20:45.102Z,98037.98
2018-09-18T06:23:13.421Z,98048.20
2018-09-18T06:25:42.833Z,98043.50
2018-09-18T06:28:11.151Z,98047.19
2018-09-18T06:30:39.434Z,98042.70
2018-09-18T06:33:07.789Z,98045.39
2018-09-18T06:35:36.110Z,98045.72
2018-09-18T06:38:04.503Z,98042.82
2018-09-18T06:40:32.845Z,98047.00
2018-09-18T06:43:01.137Z,98053.95
2018-09-18T06:45:29.433Z,98050.89
2018-09-18T06:47:57.757Z,98053.30
2018-09-18T06:50:26.047Z,98062.75
2018-09-18T06:52:54.342Z,98064.68
2018-09-18T06:55:22.641Z,98056.41
2018-09-18T06:57:50.937Z,98063.38
2018-09-18T07:00:19.266Z,98055.53
2018-09-18T07:02:47.557Z,98033.84
2018-09-18T07:05:15.900Z,98058.87
2018-09-18T07:07:44.201Z,98056.68
2018-09-18T07:10:12.505Z,98057.72
2018-09-18T07:12:40.826Z,98053.11
2018-09-18T07:15:09.119Z,98050.47
2018-09-18T07:17:37.412Z,98057.14
2018-09-18T07:20:05.722Z,98055.16
2018-09-18T07:22:34.021Z,98051.50
2018-09-18T07:25:02.455Z,98055.64
2018-09-18T07:27:30.666Z,98054.91
2018-09-18T07:29:58.965Z,98053.64
2018-09-18T07:32:27.270Z,98056.67
2018-09-18T07:34:55.567Z,98049.69
2018-09-18T07:37:23.895Z,98057.23
2018-09-18T07:39:52.216Z,98057.14
2018-09-18T07:42:20.590Z,98048.89
2018-09-18T07:44:48.901Z,98052.21
2018-09-18T07:47:17.194Z,98051.83
2018-09-18T07:49:45.506Z,98051.11
2018-09-18T07:52:13.867Z,98057.39
2018-09-18T07:54:42.110Z,98046.08
2018-09-18T07:57:10.416Z,98048.83
2018-09-18T07:59:38.715Z,98042.81
2018-09-18T08:02:07.028Z,98048.94
2018-09-18T08:04:35.322Z,98052.70
2018-09-18T08:07:03.619Z,98048.20
2018-09-18T08:09:31.926Z,98039.55
2018-09-18T08:12:00.217Z,98039.22
2018-09-18T08:14:28.531Z,98039.53
2018-09-18T08:16:56.827Z,98043.69
2018-09-18T08:19:25.257Z,98041.81
2018-09-18T08:21:53.484Z,98043.33
2018-09-18T08:24:21.746Z,98043.79
2018-09-18T08:26:50.085Z,98046.17
2018-09-18T08:29:18.382Z,98049.72
2018-09-18T08:31:46.677Z,98043.85
2018-09-18T08:34:15.012Z,98047.69
2018-09-18T08:36:43.309Z,98047.41
2018-09-18T08:39:11.627Z,98049.06
2018-09-18T08:41:39.953Z,98041.65
2018-09-18T08:44:12.141Z,98050.35
2018-09-18T08:46:40.422Z,98045.58
2018-09-18T08:49:08.735Z,98049.41
2018-09-18T08:51:37.099Z,98043.13
2018-09-18T08:54:05.386Z,98047.15
2018-09-18T08:56:33.694Z,98044.60
2018-09-18T08:59:02.008Z,98039.64
2018-09-18T09:01:30.314Z,98046.34
2018-09-18T09:03:58.688Z,98047.55
2018-09-18T09:06:26.980Z,98050.53
2018-09-18T09:08:55.524Z,98055.40
2018-09-18T09:11:23.640Z,98047.80
2018-09-18T09:13:51.927Z,98054.22
2018-09-18T09:16:20.243Z,98054.05
2018-09-18T09:18:48.550Z,98051.66
2018-09-18T09:21:16.929Z,98052.06
2018-09-18T09:23:45.173Z,98048.69
2018-09-18T09:26:13.475Z,98049.49
2018-09-18T09:28:41.817Z,98034.58
2018-09-18T09:31:10.091Z,98040.41
2018-09-18T09:33:38.382Z,98037.80
2018-09-18T09:36:06.737Z,98034.55
2018-09-18T09:38:35.040Z,98030.67
2018-09-18T09:41:03.346Z,98030.42
2018-09-18T09:43:31.674Z,98028.13
2018-09-18T09:46:00.012Z,98021.13
2018-09-18T09:48:28.369Z,98024.57
2018-09-18T09:50:56.684Z,98023.48
2018-09-18T09:53:24.975Z,98023.91
2018-09-18T09:55:53.270Z,98021.20
2018-09-18T09:58:21.582Z,98020.41
2018-09-18T10:00:49.909Z,98022.39
2018-09-18T10:03:18.204Z,98022.31
2018-09-18T10:05:46.528Z,98011.36
2018-09-18T10:08:14.827Z,98015.48
2018-09-18T10:10:43.272Z,98014.33
2018-09-18T10:13:11.459Z,98012.53
2018-09-18T10:15:39.764Z,98010.15
2018-09-18T10:18:08.087Z,98009.73
2018-09-18T10:20:36.374Z,98008.59
2018-09-18T10:23:04.671Z,98013.97
2018-09-18T10:25:32.970Z,98010.67
2018-09-18T10:28:01.278Z,98009.70
2018-09-18T10:30:29.593Z,98009.80
2018-09-18T10:32:57.894Z,98004.50
2018-09-18T10:35:26.216Z,98009.02
2018-09-18T10:37:54.518Z,98006.50
2018-09-18T10:40:22.791Z,98005.80
2018-09-18T10:42:51.172Z,98000.30
2018-09-18T10:45:19.422Z,97994.50
2018-09-18T10:47:47.711Z,97988.84
2018-09-18T10:50:16.019Z,97992.96
2018-09-18T10:52:44.365Z,97980.96
2018-09-18T10:55:12.631Z,97984.03
2018-09-18T10:57:40.943Z,97984.02
2018-09-18T11:00:09.272Z,97979.13
2018-09-18T11:02:37.563Z,97982.90
2018-09-18T11:05:05.882Z,97976.55
2018-09-18T11:07:34.234Z,97971.79
2018-09-18T11:10:02.550Z,97970.70
2018-09-18T11:12:30.862Z,97977.55
2018-09-18T11:14:59.136Z,97965.42
2018-09-18T11:17:27.442Z,97961.67
2018-09-18T11:19:55.789Z,97960.34
2018-09-18T11:22:24.069Z,97962.28
2018-09-18T11:24:52.392Z,97955.92
2018-09-18T11:27:20.662Z,97951.65
2018-09-18T11:29:48.959Z,97958.66
2018-09-18T11:32:17.247Z,97962.53
2018-09-18T11:34:45.567Z,97956.05
2018-09-18T11:37:13.939Z,97958.50
2018-09-18T11:39:42.222Z,97955.55
2018-09-18T11:42:10.534Z,97955.34
2018-09-18T11:44:38.834Z,97947.73
2018-09-18T11:47:07.130Z,97945.59
2018-09-18T11:49:35.445Z,97941.24
2018-09-18T11:52:03.759Z,97943.30
2018-09-18T11:54:32.155Z,97939.61
2018-09-18T11:57:00.535Z,97940.88
2018-09-18T11:59:28.812Z,97942.39
2018-09-18T12:01:57.103Z,97935.98
2018-09-18T12:04:25.435Z,97938.59
2018-09-18T12:06:53.707Z,97932.38
2018-09-18T12:09:22.015Z,97939.62
2018-09-18T12:11:50.322Z,97938.48
2018-09-18T12:14:18.621Z,97941.34
2018-09-18T12:16:46.920Z,97939.62
2018-09-18T12:19:15.234Z,97929.82
2018-09-18T12:21:43.526Z,97928.41
2018-09-18T12:24:11.827Z,97923.60
2018-09-18T12:26:40.139Z,97917.88
2018-09-18T12:29:08.434Z,97921.66
2018-09-18T12:31:36.736Z,97918.91
2018-09-18T12:34:05.043Z,97917.30
2018-09-18T12:36:33.346Z,97914.38
2018-09-18T12:39:01.660Z,97922.00
2018-09-18T12:41:30.055Z,97915.25
2018-09-18T12:43:58.268Z,97908.99
2018-09-18T12:46:26.567Z,97907.02
2018-09-18T12:48:54.898Z,97907.36
2018-09-18T12:51:23.189Z,97900.20
2018-09-18T12:53:51.536Z,97896.48
2018-09-18T12:56:19.810Z,97894.17
2018-09-18T12:58:48.122Z,97895.14
2018-09-18T13:01:16.431Z,97899.14
2018-09-18T13:03:44.739Z,97888.08
2018-09-18T13:06:13.165Z,97890.73
2018-09-18T13:08:41.339Z,97889.66
2018-09-18T13:11:09.655Z,97892.20
2018-09-18T13:13:38.021Z,97893.00
2018-09-18T13:16:06.266Z,97890.98
2018-09-18T13:18:34.578Z,97878.82
2018-09-18T13:21:02.955Z,97877.33
2018-09-18T13:23:31.338Z,97877.69
2018-09-18T13:25:59.638Z,97871.89
2018-09-18T13:28:27.936Z,97869.16
2018-09-18T13:30:56.234Z,97872.63
2018-09-18T13:33:24.542Z,97867.20
2018-09-18T13:35:52.839Z,97866.41
2018-09-18T13:38:21.150Z,97865.27
2018-09-18T13:40:49.507Z,97862.23
2018-09-18T13:43:17.758Z,97859.59
2018-09-18T13:45:46.093Z,97862.06
2018-09-18T13:48:14.399Z,97855.44
2018-09-18T13:50:42.698Z,97860.05
2018-09-18T13:53:11.003Z,97849.16
2018-09-18T13:55:39.453Z,97853.38
2018-09-18T13:58:07.635Z,97850.36
2018-09-18T14:00:35.934Z,97849.58
2018-09-18T14:03:04.241Z,97846.04
2018-09-18T14:05:32.640Z,97849.21
2018-09-18T14:08:00.848Z,97843.63
2018-09-18T14:10:29.163Z,97841.31
2018-09-18T14:12:57.467Z,97838.86
2018-09-18T14:15:25.767Z,97834.32
2018-09-18T14:17:54.083Z,97839.89
2018-09-18T14:20:22.476Z,97832.51
2018-09-18T14:22:50.678Z,97835.47
2018-09-18T14:25:18.995Z,97830.67
2018-09-18T14:27:47.294Z,97827.83
2018-09-18T14:30:15.592Z,97830.20
2018-09-18T14:32:43.916Z,97829.05
2018-09-18T14:35:12.212Z,97822.39
2018-09-18T14:37:40.509Z,97832.57
2018-09-18T14:40:08.828Z,97826.05
2018-09-18T14:42:37.271Z,97825.34
2018-09-18T14:45:05.574Z,97822.86
2018-09-18T14:47:33.886Z,97820.76
2018-09-18T14:50:02.901Z,97818.33
2018-09-18T14:52:31.184Z,97815.43
2018-09-18T14:54:59.498Z,97818.89
2018-09-18T14:57:27.795Z,97823.39
2018-09-18T14:59:56.110Z,97825.22
2018-09-18T15:02:24.406Z,97821.83
2018-09-18T15:04:52.752Z,97808.99
2018-09-18T15:07:21.027Z,97827.91
2018-09-18T15:09:49.311Z,97827.83
2018-09-18T15:12:17.608Z,97830.06
2018-09-18T15:14:45.988Z,97827.15
2018-09-18T15:17:14.214Z,97829.90
2018-09-18T15:19:42.516Z,97829.42
2018-09-18T15:22:10.864Z,97829.66
2018-09-18T15:24:39.146Z,97828.30
2018-09-18T15:27:07.454Z,97840.78
2018-09-18T15:29:35.747Z,97836.78
2018-09-18T15:32:04.064Z,97842.08
2018-09-18T15:34:32.355Z,97837.68
2018-09-18T15:37:00.651Z,97841.61
2018-09-18T15:39:29.047Z,97837.97
2018-09-18T15:41:57.290Z,97842.81
2018-09-18T15:44:25.586Z,97849.00
2018-09-18T15:46:53.899Z,97855.88
2018-09-18T15:49:22.190Z,97864.12
2018-09-18T15:51:50.523Z,97864.84
2018-09-18T15:54:18.804Z,97864.38
2018-09-18T15:56:47.098Z,97865.90
2018-09-18T15:59:15.594Z,97873.10
2018-09-18T16:01:45.508Z,97870.12
2018-09-18T16:04:13.809Z,97874.20
2018-09-18T16:06:42.118Z,97875.44
2018-09-18T16:09:10.467Z,97873.52
2018-09-18T16:11:38.782Z,97878.58
2018-09-18T16:14:07.077Z,97877.73
2018-09-18T16:16:35.438Z,97880.60
2018-09-18T16:19:03.738Z,97883.70
2018-09-18T16:21:32.027Z,97878.88
2018-09-18T16:24:00.342Z,97877.95
2018-09-18T16:26:28.641Z,97879.51
2018-09-18T16:28:56.959Z,97876.17
2018-09-18T16:31:25.249Z,97876.42
2018-09-18T16:33:53.542Z,97886.66
2018-09-18T16:36:21.850Z,97881.70
2018-09-18T16:38:50.150Z,97886.22
2018-09-18T16:41:18.470Z,97891.41
2018-09-18T16:43:46.812Z,97901.97
2018-09-18T16:46:15.082Z,97912.19
2018-09-18T16:48:43.496Z,97912.13
2018-09-18T16:51:11.700Z,97909.73
2018-09-18T16:53:40.014Z,97898.45
2018-09-18T16:56:08.310Z,97896.31
2018-09-18T16:58:36.686Z,97893.52
2018-09-18T17:01:04.914Z,97894.48
2018-09-18T17:03:33.244Z,97892.36
2018-09-18T17:06:01.553Z,97895.31
2018-09-18T17:08:29.859Z,97891.17
2018-09-18T17:10:59.479Z,97893.03
2018-09-18T17:13:27.894Z,97884.61
2018-09-18T17:15:56.095Z,97877.33
2018-09-18T17:18:24.788Z,97878.67
2018-09-18T17:20:53.055Z,97884.11
2018-09-18T17:23:21.369Z,97891.11
2018-09-18T17:25:49.655Z,97891.80
2018-09-18T17:28:18.028Z,97901.34
2018-09-18T17:30:46.287Z,97887.84
2018-09-18T17:33:14.685Z,97892.67
2018-09-18T17:35:42.979Z,97897.63
2018-09-18T17:38:11.242Z,97902.97
2018-09-18T17:40:39.554Z,97911.72
2018-09-18T17:43:07.845Z,97920.33
2018-09-18T17:45:36.143Z,97915.72
2018-09-18T17:48:04.480Z,97925.86
2018-09-18T17:50:32.780Z,97917.44
2018-09-18T17:53:01.083Z,97924.41
2018-09-18T17:55:29.383Z,97925.23
2018-09-18T17:57:57.703Z,97935.25
2018-09-18T18:00:26.010Z,97945.11
2018-09-18T18:02:54.306Z,97953.56
2018-09-18T18:05:22.646Z,97956.05
2018-09-18T18:07:50.895Z,97957.30
2018-09-18T18:10:19.202Z,97964.97
2018-09-18T18:12:47.494Z,97966.02
2018-09-18T18:15:15.807Z,97966.97
2018-09-18T18:17:44.113Z,97976.30
2018-09-18T18:20:12.460Z,97992.48
2018-09-18T18:22:40.707Z,98002.59
2018-09-18T18:25:09.007Z,98006.63
2018-09-18T18:27:37.318Z,98017.27
2018-09-18T18:30:05.606Z,98023.70
2018-09-18T18:32:33.925Z,98035.39
2018-09-18T18:35:02.218Z,98024.27
2018-09-18T18:37:30.515Z,98022.88
2018-09-18T18:39:58.836Z,98021.48
2018-09-18T18:42:27.126Z,98028.55
2018-09-18T18:45:01.562Z,98032.16
2018-09-18T18:47:29.961Z,98037.02
2018-09-18T18:49:58.188Z,98038.22
2018-09-18T18:52:26.484Z,98031.58
2018-09-18T18:54:54.778Z,98046.06
2018-09-18T18:57:23.090Z,98043.84
2018-09-18T18:59:51.390Z,98044.46
2018-09-18T19:02:19.702Z,98054.09
2018-09-18T19:04:48.008Z,98048.47
2018-09-18T19:07:16.349Z,98043.44
2018-09-18T19:09:44.643Z,98044.86
2018-09-18T19:12:12.966Z,98052.52
2018-09-18T19:14:41.253Z,98055.70
2018-09-18T19:17:09.555Z,98057.53
2018-09-18T19:19:37.872Z,98059.36
2018-09-18T19:22:06.165Z,98056.72
2018-09-18T19:24:34.485Z,98050.50
2018-09-18T19:27:02.788Z,98052.72
2018-09-18T19:29:31.106Z,98045.89
2018-09-18T19:31:59.576Z,98039.88
2018-09-18T19:34:27.884Z,98034.19
2018-09-18T19:36:56.179Z,98027.17
2018-09-18T19:39:24.475Z,98024.73
2018-09-18T19:41:52.783Z,98022.32
2018-09-18T19:44:59.389Z,98030.30
2018-09-18T19:47:27.725Z,98040.17
2018-09-18T19:49:56.019Z,98042.33
2018-09-18T19:52:24.413Z,98037.95
2018-09-18T19:54:52.615Z,98039.72
2018-09-18T19:57:22.095Z,98045.14
2018-09-18T19:59:50.419Z,98052.56
2018-09-18T20:02:18.710Z,98054.38
2018-09-18T20:04:47.010Z,98048.31
2018-09-18T20:07:15.311Z,98049.47
2018-09-18T20:09:43.624Z,98049.83
2018-09-18T20:12:12.330Z,98051.06
2018-09-18T20:14:40.644Z,98055.97
2018-09-18T20:17:08.934Z,98059.67
2018-09-18T20:19:37.243Z,98063.83
2018-09-18T20:22:05.530Z,98061.56
2018-09-18T20:24:33.835Z,98068.34
2018-09-18T20:27:02.131Z,98077.52
2018-09-18T20:29:30.512Z,98078.52
2018-09-18T20:31:58.814Z,98088.70
2018-09-18T20:34:27.177Z,98085.32
2018-09-18T20:36:55.481Z,98087.50
2018-09-18T20:39:23.789Z,98087.73
2018-09-18T20:41:52.126Z,98093.13
2018-09-18T20:44:20.406Z,98101.88
2018-09-18T20:46:48.739Z,98101.66
2018-09-18T20:49:17.059Z,98110.05
2018-09-18T20:51:46.261Z,98109.09
2018-09-18T20:54:14.571Z,98120.70
2018-09-18T20:56:42.864Z,98122.74
2018-09-18T20:59:11.178Z,98127.28
2018-09-18T21:01:39.480Z,98127.95
2018-09-18T21:04:07.796Z,98133.68
2018-09-18T21:06:36.100Z,98131.13
2018-09-18T21:09:04.406Z,98132.05
2018-09-18T21:11:32.714Z,98131.74
2018-09-18T21:14:01.027Z,98132.41
2018-09-18T21:16:29.346Z,98122.32
2018-09-18T21:18:57.647Z,98122.77
2018-09-18T21:21:25.976Z,98123.14
2018-09-18T21:23:54.281Z,98134.80
2018-09-18T21:26:22.575Z,98127.22
2018-09-18T21:28:50.889Z,98132.56
2018-09-18T21:31:19.207Z,98125.80
2018-09-18T21:33:47.518Z,98125.67
2018-09-18T21:36:15.821Z,98129.58
2018-09-18T21:38:44.154Z,98125.13
2018-09-18T21:41:12.444Z,98117.53
2018-09-18T21:43:40.757Z,98116.11
2018-09-18T21:46:09.063Z,98118.48
2018-09-18T21:48:37.388Z,98115.74
2018-09-18T21:51:05.754Z,98116.08
2018-09-18T21:53:34.064Z,98121.09
2018-09-18T21:56:02.382Z,98133.70
2018-09-18T21:58:30.682Z,98131.47
2018-09-18T22:00:58.990Z,98123.77
2018-09-18T22:03:27.324Z,98121.34
2018-09-18T22:05:55.666Z,98126.14
2018-09-18T22:08:23.990Z,98123.59
2018-09-18T22:10:52.295Z,98120.88
2018-09-18T22:13:20.611Z,98119.70
2018-09-18T22:15:48.919Z,98117.64
2018-09-18T22:18:17.254Z,98120.28
2018-09-18T22:20:45.571Z,98129.03
2018-09-18T22:23:13.922Z,98124.67
2018-09-18T22:25:42.245Z,98123.13
2018-09-18T22:28:10.565Z,98131.54
2018-09-18T22:30:38.888Z,98125.41
2018-09-18T22:33:07.199Z,98131.83
2018-09-18T22:35:35.508Z,98127.53
2018-09-18T22:38:03.821Z,98127.59
2018-09-18T22:40:32.125Z,98124.11
2018-09-18T22:43:00.479Z,98130.17
2018-09-18T22:45:28.759Z,98130.50
2018-09-18T22:47:57.074Z,98135.94
2018-09-18T22:50:25.375Z,98134.05
2018-09-18T22:52:53.683Z,98142.45
2018-09-18T22:55:22.005Z,98139.29
2018-09-18T22:57:50.306Z,98137.82
2018-09-18T23:00:18.622Z,98135.76
2018-09-18T23:02:46.938Z,98139.16
2018-09-18T23:05:15.259Z,98136.78
2018-09-18T23:07:43.566Z,98138.77
2018-09-18T23:10:11.871Z,98133.30
2018-09-18T23:12:40.199Z,98136.05
2018-09-18T23:15:08.524Z,98144.53
2018-09-18T23:17:36.840Z,98141.83
2018-09-18T23:20:05.150Z,98140.95
2018-09-18T23:22:33.473Z,98150.99
2018-09-18T23:25:01.784Z,98150.47
2018-09-18T23:27:30.095Z,98155.68
2018-09-18T23:29:58.415Z,98150.90
2018-09-18T23:32:26.744Z,98155.40
2018-09-18T23:34:55.058Z,98159.16
2018-09-18T23:37:23.365Z,98160.47
2018-09-18T23:39:51.683Z,98165.06
2018-09-18T23:42:20.137Z,98164.69
2018-09-18T23:44:48.301Z,98168.57
2018-09-18T23:47:16.619Z,98165.16
2018-09-18T23:49:44.926Z,98163.59
2018-09-18T23:52:13.257Z,98161.81
2018-09-18T23:54:41.554Z,98159.08
2018-09-18T23:57:09.862Z,98163.27
2018-09-18T23:59:38.184Z,98155.77
